sensor_id;sensor_type;location;lat;lon;timestamp;P1;durP1;ratioP1;P2;durP2;ratioP2
59978;SDS011;45839;44.882;20.650;2024-02-26T00:01:00;10.90;;;6.40;;
59978;SDS011;45839;44.882;20.650;2024-02-26T00:03:26;11.48;;;6.78;;
59978;SDS011;45839;44.882;20.650;2024-02-26T00:05:53;13.25;;;7.35;;
59978;SDS011;45839;44.882;20.650;2024-02-26T00:08:19;12.07;;;6.75;;
59978;SDS011;45839;44.882;20.650;2024-02-26T00:10:45;14.80;;;7.85;;
59978;SDS011;45839;44.882;20.650;2024-02-26T00:13:11;12.32;;;7.32;;
59978;SDS011;45839;44.882;20.650;2024-02-26T00:15:37;12.55;;;7.47;;
59978;SDS011;45839;44.882;20.650;2024-02-26T00:18:04;10.90;;;7.10;;
59978;SDS011;45839;44.882;20.650;2024-02-26T00:20:30;13.40;;;7.40;;
59978;SDS011;45839;44.882;20.650;2024-02-26T00:22:56;13.15;;;7.65;;
59978;SDS011;45839;44.882;20.650;2024-02-26T00:25:22;12.57;;;7.13;;
59978;SDS011;45839;44.882;20.650;2024-02-26T00:27:48;13.25;;;8.20;;
59978;SDS011;45839;44.882;20.650;2024-02-26T00:30:14;13.80;;;7.53;;
59978;SDS011;45839;44.882;20.650;2024-02-26T00:32:41;13.50;;;7.78;;
59978;SDS011;45839;44.882;20.650;2024-02-26T00:35:07;15.18;;;8.18;;
59978;SDS011;45839;44.882;20.650;2024-02-26T00:37:37;15.93;;;8.50;;
59978;SDS011;45839;44.882;20.650;2024-02-26T00:40:04;16.00;;;8.07;;
59978;SDS011;45839;44.882;20.650;2024-02-26T00:42:31;17.00;;;7.35;;
59978;SDS011;45839;44.882;20.650;2024-02-26T00:44:57;14.60;;;7.90;;
59978;SDS011;45839;44.882;20.650;2024-02-26T00:47:24;15.63;;;8.25;;
59978;SDS011;45839;44.882;20.650;2024-02-26T00:49:50;14.43;;;8.18;;
59978;SDS011;45839;44.882;20.650;2024-02-26T00:52:16;13.68;;;8.27;;
59978;SDS011;45839;44.882;20.650;2024-02-26T00:54:42;14.13;;;7.50;;
59978;SDS011;45839;44.882;20.650;2024-02-26T01:00:11;17.33;;;8.23;;
59978;SDS011;45839;44.882;20.650;2024-02-26T01:02:38;14.57;;;7.93;;
59978;SDS011;45839;44.882;20.650;2024-02-26T01:05:04;13.43;;;8.23;;
59978;SDS011;45839;44.882;20.650;2024-02-26T01:07:31;14.05;;;8.38;;
59978;SDS011;45839;44.882;20.650;2024-02-26T01:10:01;13.70;;;8.07;;
59978;SDS011;45839;44.882;20.650;2024-02-26T01:12:27;16.52;;;9.13;;
59978;SDS011;45839;44.882;20.650;2024-02-26T01:17:54;13.50;;;8.07;;
59978;SDS011;45839;44.882;20.650;2024-02-26T01:20:20;12.85;;;8.32;;
59978;SDS011;45839;44.882;20.650;2024-02-26T01:22:46;12.60;;;8.38;;
59978;SDS011;45839;44.882;20.650;2024-02-26T01:25:14;14.88;;;8.55;;
59978;SDS011;45839;44.882;20.650;2024-02-26T01:27:40;12.80;;;8.45;;
59978;SDS011;45839;44.882;20.650;2024-02-26T01:30:11;13.48;;;8.65;;
59978;SDS011;45839;44.882;20.650;2024-02-26T01:32:37;15.30;;;9.27;;
59978;SDS011;45839;44.882;20.650;2024-02-26T01:35:03;13.82;;;8.88;;
59978;SDS011;45839;44.882;20.650;2024-02-26T01:37:30;13.30;;;9.38;;
59978;SDS011;45839;44.882;20.650;2024-02-26T01:39:56;15.23;;;9.35;;
59978;SDS011;45839;44.882;20.650;2024-02-26T01:42:22;13.63;;;8.43;;
59978;SDS011;45839;44.882;20.650;2024-02-26T01:44:48;16.95;;;9.52;;
59978;SDS011;45839;44.882;20.650;2024-02-26T01:47:14;14.63;;;9.82;;
59978;SDS011;45839;44.882;20.650;2024-02-26T01:49:40;15.60;;;9.82;;
59978;SDS011;45839;44.882;20.650;2024-02-26T01:52:07;12.55;;;8.98;;
59978;SDS011;45839;44.882;20.650;2024-02-26T01:54:35;14.85;;;10.30;;
59978;SDS011;45839;44.882;20.650;2024-02-26T01:57:02;14.70;;;8.98;;
59978;SDS011;45839;44.882;20.650;2024-02-26T01:59:29;13.68;;;9.23;;
59978;SDS011;45839;44.882;20.650;2024-02-26T02:01:56;15.10;;;9.02;;
59978;SDS011;45839;44.882;20.650;2024-02-26T02:04:23;15.88;;;10.07;;
59978;SDS011;45839;44.882;20.650;2024-02-26T02:06:50;14.90;;;9.50;;
59978;SDS011;45839;44.882;20.650;2024-02-26T02:09:18;14.27;;;9.38;;
59978;SDS011;45839;44.882;20.650;2024-02-26T02:11:44;15.27;;;10.05;;
59978;SDS011;45839;44.882;20.650;2024-02-26T02:14:11;13.32;;;10.25;;
59978;SDS011;45839;44.882;20.650;2024-02-26T02:16:37;14.93;;;9.68;;
59978;SDS011;45839;44.882;20.650;2024-02-26T02:19:03;14.75;;;9.75;;
59978;SDS011;45839;44.882;20.650;2024-02-26T02:21:29;14.70;;;10.48;;
59978;SDS011;45839;44.882;20.650;2024-02-26T02:23:55;16.02;;;11.00;;
59978;SDS011;45839;44.882;20.650;2024-02-26T02:26:21;16.63;;;10.57;;
59978;SDS011;45839;44.882;20.650;2024-02-26T02:28:48;15.48;;;10.38;;
59978;SDS011;45839;44.882;20.650;2024-02-26T02:31:14;14.43;;;10.45;;
59978;SDS011;45839;44.882;20.650;2024-02-26T02:33:41;16.38;;;11.02;;
59978;SDS011;45839;44.882;20.650;2024-02-26T02:36:07;15.32;;;11.23;;
59978;SDS011;45839;44.882;20.650;2024-02-26T02:38:38;15.38;;;10.95;;
59978;SDS011;45839;44.882;20.650;2024-02-26T02:41:04;15.70;;;11.55;;
59978;SDS011;45839;44.882;20.650;2024-02-26T02:43:30;17.52;;;11.98;;
59978;SDS011;45839;44.882;20.650;2024-02-26T02:45:56;18.48;;;11.50;;
59978;SDS011;45839;44.882;20.650;2024-02-26T02:48:22;17.55;;;11.73;;
59978;SDS011;45839;44.882;20.650;2024-02-26T02:50:48;19.08;;;12.13;;
59978;SDS011;45839;44.882;20.650;2024-02-26T02:53:14;18.35;;;12.65;;
59978;SDS011;45839;44.882;20.650;2024-02-26T02:55:41;17.88;;;12.23;;
59978;SDS011;45839;44.882;20.650;2024-02-26T02:58:07;16.05;;;11.75;;
59978;SDS011;45839;44.882;20.650;2024-02-26T03:00:33;18.35;;;12.50;;
59978;SDS011;45839;44.882;20.650;2024-02-26T03:02:59;18.23;;;12.27;;
59978;SDS011;45839;44.882;20.650;2024-02-26T03:05:25;19.00;;;12.40;;
59978;SDS011;45839;44.882;20.650;2024-02-26T03:07:52;17.50;;;12.50;;
59978;SDS011;45839;44.882;20.650;2024-02-26T03:10:18;17.25;;;12.40;;
59978;SDS011;45839;44.882;20.650;2024-02-26T03:12:45;17.77;;;12.45;;
59978;SDS011;45839;44.882;20.650;2024-02-26T03:15:11;19.00;;;12.95;;
59978;SDS011;45839;44.882;20.650;2024-02-26T03:17:40;17.42;;;12.25;;
59978;SDS011;45839;44.882;20.650;2024-02-26T03:20:09;16.65;;;12.18;;
59978;SDS011;45839;44.882;20.650;2024-02-26T03:22:35;18.02;;;12.65;;
59978;SDS011;45839;44.882;20.650;2024-02-26T03:25:01;17.08;;;12.15;;
59978;SDS011;45839;44.882;20.650;2024-02-26T03:27:27;16.98;;;12.30;;
59978;SDS011;45839;44.882;20.650;2024-02-26T03:29:54;18.80;;;13.07;;
59978;SDS011;45839;44.882;20.650;2024-02-26T03:32:20;18.75;;;13.13;;
59978;SDS011;45839;44.882;20.650;2024-02-26T03:34:46;18.58;;;12.27;;
59978;SDS011;45839;44.882;20.650;2024-02-26T03:37:12;19.13;;;13.25;;
59978;SDS011;45839;44.882;20.650;2024-02-26T03:39:38;18.33;;;12.50;;
59978;SDS011;45839;44.882;20.650;2024-02-26T03:42:04;19.38;;;12.30;;
59978;SDS011;45839;44.882;20.650;2024-02-26T03:44:30;18.33;;;13.20;;
59978;SDS011;45839;44.882;20.650;2024-02-26T03:46:56;20.05;;;13.05;;
59978;SDS011;45839;44.882;20.650;2024-02-26T03:49:23;20.92;;;13.73;;
59978;SDS011;45839;44.882;20.650;2024-02-26T03:51:49;18.95;;;13.65;;
59978;SDS011;45839;44.882;20.650;2024-02-26T03:54:15;18.45;;;13.65;;
59978;SDS011;45839;44.882;20.650;2024-02-26T03:56:41;21.48;;;13.15;;
59978;SDS011;45839;44.882;20.650;2024-02-26T03:59:07;19.83;;;13.00;;
59978;SDS011;45839;44.882;20.650;2024-02-26T04:01:33;20.35;;;13.30;;
59978;SDS011;45839;44.882;20.650;2024-02-26T04:03:59;18.77;;;13.77;;
59978;SDS011;45839;44.882;20.650;2024-02-26T04:06:25;19.08;;;13.90;;
59978;SDS011;45839;44.882;20.650;2024-02-26T04:08:51;20.85;;;13.77;;
59978;SDS011;45839;44.882;20.650;2024-02-26T04:11:17;22.40;;;15.15;;
59978;SDS011;45839;44.882;20.650;2024-02-26T04:13:44;20.17;;;13.85;;
59978;SDS011;45839;44.882;20.650;2024-02-26T04:16:17;21.98;;;14.07;;
59978;SDS011;45839;44.882;20.650;2024-02-26T04:18:44;21.15;;;14.75;;
59978;SDS011;45839;44.882;20.650;2024-02-26T04:21:10;21.67;;;14.85;;
59978;SDS011;45839;44.882;20.650;2024-02-26T04:23:39;20.40;;;14.35;;
59978;SDS011;45839;44.882;20.650;2024-02-26T04:26:05;19.48;;;14.18;;
59978;SDS011;45839;44.882;20.650;2024-02-26T04:28:31;21.88;;;15.25;;
59978;SDS011;45839;44.882;20.650;2024-02-26T04:30:57;23.83;;;15.52;;
59978;SDS011;45839;44.882;20.650;2024-02-26T04:33:23;23.45;;;15.35;;
59978;SDS011;45839;44.882;20.650;2024-02-26T04:35:49;24.30;;;15.38;;
59978;SDS011;45839;44.882;20.650;2024-02-26T04:38:15;20.25;;;15.07;;
59978;SDS011;45839;44.882;20.650;2024-02-26T04:40:41;21.42;;;15.68;;
59978;SDS011;45839;44.882;20.650;2024-02-26T04:43:08;24.25;;;15.93;;
59978;SDS011;45839;44.882;20.650;2024-02-26T04:45:37;27.20;;;16.33;;
59978;SDS011;45839;44.882;20.650;2024-02-26T04:48:03;22.80;;;16.45;;
59978;SDS011;45839;44.882;20.650;2024-02-26T04:50:33;24.20;;;15.70;;
59978;SDS011;45839;44.882;20.650;2024-02-26T04:53:04;23.90;;;16.38;;
59978;SDS011;45839;44.882;20.650;2024-02-26T04:55:30;22.48;;;16.02;;
59978;SDS011;45839;44.882;20.650;2024-02-26T04:57:57;24.20;;;16.38;;
59978;SDS011;45839;44.882;20.650;2024-02-26T05:00:23;24.20;;;15.40;;
59978;SDS011;45839;44.882;20.650;2024-02-26T05:02:50;21.25;;;14.60;;
59978;SDS011;45839;44.882;20.650;2024-02-26T05:05:16;22.42;;;15.32;;
59978;SDS011;45839;44.882;20.650;2024-02-26T05:08:01;25.52;;;15.57;;
59978;SDS011;45839;44.882;20.650;2024-02-26T05:10:32;22.27;;;14.68;;
59978;SDS011;45839;44.882;20.650;2024-02-26T05:12:58;23.55;;;16.23;;
59978;SDS011;45839;44.882;20.650;2024-02-26T05:15:24;22.40;;;15.13;;
59978;SDS011;45839;44.882;20.650;2024-02-26T05:17:50;22.50;;;15.20;;
59978;SDS011;45839;44.882;20.650;2024-02-26T05:20:17;20.77;;;15.30;;
59978;SDS011;45839;44.882;20.650;2024-02-26T05:22:44;21.40;;;14.73;;
59978;SDS011;45839;44.882;20.650;2024-02-26T05:25:10;22.52;;;15.02;;
59978;SDS011;45839;44.882;20.650;2024-02-26T05:27:36;22.90;;;14.70;;
59978;SDS011;45839;44.882;20.650;2024-02-26T05:30:02;19.90;;;14.57;;
59978;SDS011;45839;44.882;20.650;2024-02-26T05:32:28;20.45;;;15.13;;
59978;SDS011;45839;44.882;20.650;2024-02-26T05:34:55;23.95;;;15.27;;
59978;SDS011;45839;44.882;20.650;2024-02-26T05:37:21;21.60;;;15.48;;
59978;SDS011;45839;44.882;20.650;2024-02-26T05:39:47;20.70;;;13.73;;
59978;SDS011;45839;44.882;20.650;2024-02-26T05:42:13;23.77;;;14.75;;
59978;SDS011;45839;44.882;20.650;2024-02-26T05:44:39;22.35;;;15.38;;
59978;SDS011;45839;44.882;20.650;2024-02-26T05:47:06;23.17;;;16.08;;
59978;SDS011;45839;44.882;20.650;2024-02-26T05:49:32;25.52;;;17.58;;
59978;SDS011;45839;44.882;20.650;2024-02-26T05:52:01;25.85;;;16.70;;
59978;SDS011;45839;44.882;20.650;2024-02-26T05:54:30;25.73;;;16.50;;
59978;SDS011;45839;44.882;20.650;2024-02-26T05:56:57;26.63;;;14.98;;
59978;SDS011;45839;44.882;20.650;2024-02-26T05:59:23;159.25;;;86.13;;
59978;SDS011;45839;44.882;20.650;2024-02-26T06:01:49;69.80;;;41.00;;
59978;SDS011;45839;44.882;20.650;2024-02-26T06:04:15;74.13;;;44.67;;
59978;SDS011;45839;44.882;20.650;2024-02-26T06:06:47;47.67;;;29.15;;
59978;SDS011;45839;44.882;20.650;2024-02-26T06:09:13;42.90;;;25.58;;
59978;SDS011;45839;44.882;20.650;2024-02-26T06:11:39;33.42;;;21.30;;
59978;SDS011;45839;44.882;20.650;2024-02-26T06:14:05;33.22;;;20.27;;
59978;SDS011;45839;44.882;20.650;2024-02-26T06:16:31;29.33;;;19.20;;
59978;SDS011;45839;44.882;20.650;2024-02-26T06:18:58;22.48;;;15.25;;
59978;SDS011;45839;44.882;20.650;2024-02-26T06:21:25;22.25;;;15.77;;
59978;SDS011;45839;44.882;20.650;2024-02-26T06:23:54;22.75;;;15.82;;
59978;SDS011;45839;44.882;20.650;2024-02-26T06:26:20;24.65;;;16.23;;
59978;SDS011;45839;44.882;20.650;2024-02-26T06:28:46;21.30;;;14.35;;
59978;SDS011;45839;44.882;20.650;2024-02-26T06:31:12;21.63;;;15.68;;
59978;SDS011;45839;44.882;20.650;2024-02-26T06:33:38;25.38;;;16.00;;
59978;SDS011;45839;44.882;20.650;2024-02-26T06:36:04;23.38;;;16.52;;
59978;SDS011;45839;44.882;20.650;2024-02-26T06:38:31;25.38;;;15.90;;
59978;SDS011;45839;44.882;20.650;2024-02-26T06:40:57;26.40;;;15.55;;
59978;SDS011;45839;44.882;20.650;2024-02-26T06:43:23;21.48;;;15.75;;
59978;SDS011;45839;44.882;20.650;2024-02-26T06:45:49;22.95;;;14.85;;
59978;SDS011;45839;44.882;20.650;2024-02-26T06:48:15;24.17;;;16.48;;
59978;SDS011;45839;44.882;20.650;2024-02-26T06:50:41;22.33;;;15.73;;
59978;SDS011;45839;44.882;20.650;2024-02-26T06:53:09;22.77;;;15.32;;
59978;SDS011;45839;44.882;20.650;2024-02-26T06:55:38;21.60;;;14.73;;
59978;SDS011;45839;44.882;20.650;2024-02-26T06:58:10;19.35;;;14.32;;
59978;SDS011;45839;44.882;20.650;2024-02-26T07:00:36;20.65;;;14.50;;
59978;SDS011;45839;44.882;20.650;2024-02-26T07:03:02;22.33;;;15.27;;
59978;SDS011;45839;44.882;20.650;2024-02-26T07:05:29;23.80;;;15.35;;
59978;SDS011;45839;44.882;20.650;2024-02-26T07:07:55;21.60;;;14.77;;
59978;SDS011;45839;44.882;20.650;2024-02-26T07:10:21;22.88;;;15.32;;
59978;SDS011;45839;44.882;20.650;2024-02-26T07:12:47;23.80;;;16.05;;
59978;SDS011;45839;44.882;20.650;2024-02-26T07:15:13;20.20;;;14.27;;
59978;SDS011;45839;44.882;20.650;2024-02-26T07:17:39;22.80;;;15.27;;
59978;SDS011;45839;44.882;20.650;2024-02-26T07:20:12;23.52;;;15.30;;
59978;SDS011;45839;44.882;20.650;2024-02-26T07:22:39;22.15;;;13.80;;
59978;SDS011;45839;44.882;20.650;2024-02-26T07:25:07;19.48;;;13.52;;
59978;SDS011;45839;44.882;20.650;2024-02-26T07:27:34;23.52;;;14.75;;
59978;SDS011;45839;44.882;20.650;2024-02-26T07:30:00;23.30;;;14.27;;
59978;SDS011;45839;44.882;20.650;2024-02-26T07:32:26;23.15;;;13.85;;
59978;SDS011;45839;44.882;20.650;2024-02-26T07:34:52;20.25;;;14.32;;
59978;SDS011;45839;44.882;20.650;2024-02-26T07:37:18;19.77;;;14.00;;
59978;SDS011;45839;44.882;20.650;2024-02-26T07:39:44;21.00;;;13.60;;
59978;SDS011;45839;44.882;20.650;2024-02-26T07:42:10;20.65;;;13.95;;
59978;SDS011;45839;44.882;20.650;2024-02-26T07:44:36;23.40;;;14.20;;
59978;SDS011;45839;44.882;20.650;2024-02-26T07:47:02;20.30;;;12.88;;
59978;SDS011;45839;44.882;20.650;2024-02-26T07:49:28;19.70;;;13.48;;
59978;SDS011;45839;44.882;20.650;2024-02-26T07:51:54;22.35;;;13.02;;
59978;SDS011;45839;44.882;20.650;2024-02-26T07:54:23;23.45;;;13.32;;
59978;SDS011;45839;44.882;20.650;2024-02-26T07:56:49;19.70;;;13.38;;
59978;SDS011;45839;44.882;20.650;2024-02-26T07:59:15;23.17;;;15.07;;
59978;SDS011;45839;44.882;20.650;2024-02-26T08:01:41;21.85;;;15.15;;
59978;SDS011;45839;44.882;20.650;2024-02-26T08:04:08;21.23;;;13.75;;
59978;SDS011;45839;44.882;20.650;2024-02-26T08:06:34;21.20;;;14.18;;
59978;SDS011;45839;44.882;20.650;2024-02-26T08:09:00;20.40;;;13.52;;
59978;SDS011;45839;44.882;20.650;2024-02-26T08:11:26;22.08;;;14.25;;
59978;SDS011;45839;44.882;20.650;2024-02-26T08:13:53;20.83;;;13.27;;
59978;SDS011;45839;44.882;20.650;2024-02-26T08:16:19;21.52;;;12.95;;
59978;SDS011;45839;44.882;20.650;2024-02-26T08:18:45;21.88;;;12.80;;
59978;SDS011;45839;44.882;20.650;2024-02-26T08:21:11;19.48;;;13.32;;
59978;SDS011;45839;44.882;20.650;2024-02-26T08:23:37;19.60;;;12.05;;
59978;SDS011;45839;44.882;20.650;2024-02-26T08:26:03;19.70;;;12.77;;
59978;SDS011;45839;44.882;20.650;2024-02-26T08:28:32;19.75;;;13.07;;
59978;SDS011;45839;44.882;20.650;2024-02-26T08:30:58;22.13;;;12.85;;
59978;SDS011;45839;44.882;20.650;2024-02-26T08:33:24;22.10;;;13.48;;
59978;SDS011;45839;44.882;20.650;2024-02-26T08:35:50;18.58;;;12.98;;
59978;SDS011;45839;44.882;20.650;2024-02-26T08:38:16;22.25;;;13.27;;
59978;SDS011;45839;44.882;20.650;2024-02-26T08:40:42;19.38;;;12.95;;
59978;SDS011;45839;44.882;20.650;2024-02-26T08:43:08;19.90;;;12.07;;
59978;SDS011;45839;44.882;20.650;2024-02-26T08:45:34;19.58;;;11.82;;
59978;SDS011;45839;44.882;20.650;2024-02-26T08:48:00;20.38;;;12.40;;
59978;SDS011;45839;44.882;20.650;2024-02-26T08:50:27;20.17;;;11.35;;
59978;SDS011;45839;44.882;20.650;2024-02-26T08:52:53;19.50;;;11.95;;
59978;SDS011;45839;44.882;20.650;2024-02-26T08:55:19;20.08;;;12.98;;
59978;SDS011;45839;44.882;20.650;2024-02-26T08:57:45;19.70;;;11.85;;
59978;SDS011;45839;44.882;20.650;2024-02-26T09:00:11;19.38;;;11.80;;
59978;SDS011;45839;44.882;20.650;2024-02-26T09:02:37;17.73;;;11.43;;
59978;SDS011;45839;44.882;20.650;2024-02-26T09:05:09;18.45;;;11.45;;
59978;SDS011;45839;44.882;20.650;2024-02-26T09:07:35;19.30;;;11.80;;
59978;SDS011;45839;44.882;20.650;2024-02-26T09:10:01;20.45;;;12.02;;
59978;SDS011;45839;44.882;20.650;2024-02-26T09:12:27;19.88;;;10.70;;
59978;SDS011;45839;44.882;20.650;2024-02-26T09:14:53;17.20;;;10.90;;
59978;SDS011;45839;44.882;20.650;2024-02-26T09:17:21;17.70;;;10.10;;
59978;SDS011;45839;44.882;20.650;2024-02-26T09:19:47;17.17;;;10.65;;
59978;SDS011;45839;44.882;20.650;2024-02-26T09:22:13;16.20;;;10.20;;
59978;SDS011;45839;44.882;20.650;2024-02-26T09:24:40;15.25;;;9.70;;
59978;SDS011;45839;44.882;20.650;2024-02-26T09:27:06;18.08;;;10.30;;
59978;SDS011;45839;44.882;20.650;2024-02-26T09:29:32;17.02;;;10.05;;
59978;SDS011;45839;44.882;20.650;2024-02-26T09:31:58;17.00;;;9.70;;
59978;SDS011;45839;44.882;20.650;2024-02-26T09:34:24;14.85;;;8.68;;
59978;SDS011;45839;44.882;20.650;2024-02-26T09:36:50;16.35;;;9.32;;
59978;SDS011;45839;44.882;20.650;2024-02-26T09:39:16;14.13;;;8.90;;
59978;SDS011;45839;44.882;20.650;2024-02-26T09:41:46;14.20;;;8.10;;
59978;SDS011;45839;44.882;20.650;2024-02-26T09:44:13;12.68;;;8.00;;
59978;SDS011;45839;44.882;20.650;2024-02-26T09:46:41;13.65;;;8.02;;
59978;SDS011;45839;44.882;20.650;2024-02-26T09:49:08;12.93;;;8.02;;
59978;SDS011;45839;44.882;20.650;2024-02-26T09:51:34;13.23;;;7.80;;
59978;SDS011;45839;44.882;20.650;2024-02-26T09:54:01;13.77;;;7.63;;
59978;SDS011;45839;44.882;20.650;2024-02-26T09:56:27;12.05;;;7.97;;
59978;SDS011;45839;44.882;20.650;2024-02-26T09:58:54;14.43;;;7.65;;
59978;SDS011;45839;44.882;20.650;2024-02-26T10:01:21;12.70;;;7.18;;
59978;SDS011;45839;44.882;20.650;2024-02-26T10:03:56;12.35;;;6.50;;
59978;SDS011;45839;44.882;20.650;2024-02-26T10:08:49;11.65;;;6.53;;
59978;SDS011;45839;44.882;20.650;2024-02-26T10:11:15;11.82;;;6.40;;
59978;SDS011;45839;44.882;20.650;2024-02-26T10:13:41;12.63;;;6.90;;
59978;SDS011;45839;44.882;20.650;2024-02-26T10:16:07;9.98;;;6.13;;
59978;SDS011;45839;44.882;20.650;2024-02-26T10:21:13;12.25;;;6.22;;
59978;SDS011;45839;44.882;20.650;2024-02-26T10:23:41;11.75;;;6.47;;
59978;SDS011;45839;44.882;20.650;2024-02-26T10:26:08;12.25;;;6.10;;
59978;SDS011;45839;44.882;20.650;2024-02-26T10:28:34;14.05;;;5.82;;
59978;SDS011;45839;44.882;20.650;2024-02-26T10:31:01;10.60;;;6.38;;
59978;SDS011;45839;44.882;20.650;2024-02-26T10:33:27;12.45;;;5.65;;
59978;SDS011;45839;44.882;20.650;2024-02-26T10:35:53;10.80;;;5.88;;
59978;SDS011;45839;44.882;20.650;2024-02-26T10:38:19;12.23;;;5.70;;
59978;SDS011;45839;44.882;20.650;2024-02-26T10:40:46;11.18;;;5.60;;
59978;SDS011;45839;44.882;20.650;2024-02-26T10:43:12;11.25;;;5.47;;
59978;SDS011;45839;44.882;20.650;2024-02-26T10:45:39;10.13;;;6.05;;
59978;SDS011;45839;44.882;20.650;2024-02-26T10:48:14;9.38;;;5.38;;
59978;SDS011;45839;44.882;20.650;2024-02-26T10:50:41;9.93;;;5.90;;
59978;SDS011;45839;44.882;20.650;2024-02-26T10:53:12;10.18;;;5.78;;
59978;SDS011;45839;44.882;20.650;2024-02-26T10:55:40;11.25;;;5.82;;
59978;SDS011;45839;44.882;20.650;2024-02-26T10:58:06;12.02;;;5.60;;
59978;SDS011;45839;44.882;20.650;2024-02-26T11:00:34;10.43;;;5.50;;
59978;SDS011;45839;44.882;20.650;2024-02-26T11:03:01;9.98;;;5.70;;
59978;SDS011;45839;44.882;20.650;2024-02-26T11:05:28;11.18;;;5.43;;
59978;SDS011;45839;44.882;20.650;2024-02-26T11:07:55;8.40;;;4.88;;
59978;SDS011;45839;44.882;20.650;2024-02-26T11:10:22;9.32;;;5.20;;
59978;SDS011;45839;44.882;20.650;2024-02-26T11:12:48;12.23;;;5.60;;
59978;SDS011;45839;44.882;20.650;2024-02-26T11:15:15;9.88;;;5.47;;
59978;SDS011;45839;44.882;20.650;2024-02-26T11:17:42;8.98;;;5.28;;
59978;SDS011;45839;44.882;20.650;2024-02-26T11:20:09;8.35;;;5.18;;
59978;SDS011;45839;44.882;20.650;2024-02-26T11:22:37;11.57;;;4.90;;
59978;SDS011;45839;44.882;20.650;2024-02-26T11:25:04;11.45;;;5.25;;
59978;SDS011;45839;44.882;20.650;2024-02-26T11:27:32;9.20;;;4.72;;
59978;SDS011;45839;44.882;20.650;2024-02-26T11:30:01;8.70;;;4.40;;
59978;SDS011;45839;44.882;20.650;2024-02-26T11:32:30;12.15;;;4.60;;
59978;SDS011;45839;44.882;20.650;2024-02-26T11:34:57;9.68;;;3.95;;
59978;SDS011;45839;44.882;20.650;2024-02-26T11:37:24;7.40;;;4.20;;
59978;SDS011;45839;44.882;20.650;2024-02-26T11:39:51;12.80;;;4.07;;
59978;SDS011;45839;44.882;20.650;2024-02-26T11:42:17;7.25;;;3.88;;
59978;SDS011;45839;44.882;20.650;2024-02-26T11:44:48;8.43;;;3.15;;
59978;SDS011;45839;44.882;20.650;2024-02-26T11:47:18;7.03;;;2.97;;
59978;SDS011;45839;44.882;20.650;2024-02-26T11:49:44;8.02;;;3.10;;
59978;SDS011;45839;44.882;20.650;2024-02-26T11:52:12;6.43;;;3.08;;
59978;SDS011;45839;44.882;20.650;2024-02-26T11:59:50;8.52;;;3.15;;
59978;SDS011;45839;44.882;20.650;2024-02-26T12:03:02;6.80;;;3.40;;
59978;SDS011;45839;44.882;20.650;2024-02-26T12:05:05;6.70;;;3.20;;
59978;SDS011;45839;44.882;20.650;2024-02-26T12:07:31;7.15;;;3.28;;
59978;SDS011;45839;44.882;20.650;2024-02-26T12:10:42;8.73;;;3.58;;
59978;SDS011;45839;44.882;20.650;2024-02-26T12:12:43;8.52;;;3.72;;
59978;SDS011;45839;44.882;20.650;2024-02-26T12:15:10;6.35;;;3.38;;
59978;SDS011;45839;44.882;20.650;2024-02-26T12:17:37;7.65;;;3.17;;
59978;SDS011;45839;44.882;20.650;2024-02-26T12:20:10;10.82;;;3.50;;
59978;SDS011;45839;44.882;20.650;2024-02-26T12:22:37;6.70;;;3.13;;
59978;SDS011;45839;44.882;20.650;2024-02-26T12:25:05;8.40;;;3.35;;
59978;SDS011;45839;44.882;20.650;2024-02-26T12:27:31;9.32;;;3.38;;
59978;SDS011;45839;44.882;20.650;2024-02-26T12:29:58;6.93;;;3.20;;
59978;SDS011;45839;44.882;20.650;2024-02-26T12:32:24;9.20;;;4.05;;
59978;SDS011;45839;44.882;20.650;2024-02-26T12:34:51;7.07;;;3.25;;
59978;SDS011;45839;44.882;20.650;2024-02-26T12:37:17;5.85;;;3.25;;
59978;SDS011;45839;44.882;20.650;2024-02-26T12:39:43;6.80;;;3.15;;
59978;SDS011;45839;44.882;20.650;2024-02-26T12:42:10;8.93;;;3.17;;
59978;SDS011;45839;44.882;20.650;2024-02-26T12:44:37;6.32;;;3.08;;
59978;SDS011;45839;44.882;20.650;2024-02-26T12:47:04;6.80;;;3.42;;
59978;SDS011;45839;44.882;20.650;2024-02-26T12:49:31;6.20;;;3.20;;
59978;SDS011;45839;44.882;20.650;2024-02-26T12:51:57;7.55;;;3.05;;
59978;SDS011;45839;44.882;20.650;2024-02-26T12:54:29;7.57;;;3.55;;
59978;SDS011;45839;44.882;20.650;2024-02-26T12:57:00;11.07;;;3.75;;
59978;SDS011;45839;44.882;20.650;2024-02-26T12:59:27;7.65;;;3.38;;
59978;SDS011;45839;44.882;20.650;2024-02-26T13:01:53;7.45;;;3.20;;
59978;SDS011;45839;44.882;20.650;2024-02-26T13:04:19;6.05;;;3.20;;
59978;SDS011;45839;44.882;20.650;2024-02-26T13:06:45;7.03;;;3.05;;
59978;SDS011;45839;44.882;20.650;2024-02-26T13:09:15;10.25;;;3.35;;
59978;SDS011;45839;44.882;20.650;2024-02-26T13:11:42;10.75;;;4.13;;
59978;SDS011;45839;44.882;20.650;2024-02-26T13:14:18;7.57;;;3.70;;
59978;SDS011;45839;44.882;20.650;2024-02-26T13:16:45;8.27;;;3.10;;
59978;SDS011;45839;44.882;20.650;2024-02-26T13:19:11;8.48;;;3.28;;
59978;SDS011;45839;44.882;20.650;2024-02-26T13:21:37;10.23;;;3.08;;
59978;SDS011;45839;44.882;20.650;2024-02-26T13:24:03;10.55;;;3.28;;
59978;SDS011;45839;44.882;20.650;2024-02-26T13:26:29;6.22;;;2.50;;
59978;SDS011;45839;44.882;20.650;2024-02-26T13:29:02;7.93;;;2.90;;
59978;SDS011;45839;44.882;20.650;2024-02-26T13:31:31;7.55;;;2.95;;
59978;SDS011;45839;44.882;20.650;2024-02-26T13:33:58;6.70;;;3.05;;
59978;SDS011;45839;44.882;20.650;2024-02-26T13:36:24;10.15;;;2.97;;
59978;SDS011;45839;44.882;20.650;2024-02-26T13:38:51;8.02;;;2.90;;
59978;SDS011;45839;44.882;20.650;2024-02-26T13:41:18;8.02;;;2.85;;
59978;SDS011;45839;44.882;20.650;2024-02-26T13:43:44;9.68;;;3.13;;
59978;SDS011;45839;44.882;20.650;2024-02-26T13:46:10;9.05;;;4.97;;
59978;SDS011;45839;44.882;20.650;2024-02-26T13:48:37;13.13;;;6.60;;
59978;SDS011;45839;44.882;20.650;2024-02-26T13:51:04;8.60;;;4.80;;
59978;SDS011;45839;44.882;20.650;2024-02-26T13:53:30;8.63;;;4.40;;
59978;SDS011;45839;44.882;20.650;2024-02-26T13:55:56;7.22;;;3.65;;
59978;SDS011;45839;44.882;20.650;2024-02-26T13:58:23;11.20;;;4.82;;
59978;SDS011;45839;44.882;20.650;2024-02-26T14:00:52;13.55;;;5.57;;
59978;SDS011;45839;44.882;20.650;2024-02-26T14:03:18;11.80;;;7.05;;
59978;SDS011;45839;44.882;20.650;2024-02-26T14:05:44;13.95;;;7.00;;
59978;SDS011;45839;44.882;20.650;2024-02-26T14:08:10;15.57;;;7.82;;
59978;SDS011;45839;44.882;20.650;2024-02-26T14:10:36;13.05;;;7.28;;
59978;SDS011;45839;44.882;20.650;2024-02-26T14:13:03;13.13;;;7.50;;
59978;SDS011;45839;44.882;20.650;2024-02-26T14:15:29;12.88;;;6.80;;
59978;SDS011;45839;44.882;20.650;2024-02-26T14:17:55;16.35;;;7.30;;
59978;SDS011;45839;44.882;20.650;2024-02-26T14:20:22;11.75;;;6.57;;
59978;SDS011;45839;44.882;20.650;2024-02-26T14:22:51;9.82;;;6.50;;
59978;SDS011;45839;44.882;20.650;2024-02-26T14:25:21;14.87;;;7.13;;
59978;SDS011;45839;44.882;20.650;2024-02-26T14:27:47;14.32;;;7.10;;
59978;SDS011;45839;44.882;20.650;2024-02-26T14:30:13;14.02;;;7.03;;